createdAt,value
2023-11-23T00:00:14.833Z,6.63
2023-11-23T00:01:14.801Z,6.63
2023-11-23T00:02:14.837Z,6.70
2023-11-23T00:03:14.756Z,6.62
2023-11-23T00:04:14.777Z,6.49
2023-11-23T00:05:14.727Z,6.48
2023-11-23T00:06:14.699Z,6.54
2023-11-23T00:07:14.656Z,6.63
2023-11-23T00:08:14.663Z,6.66
2023-11-23T00:09:14.705Z,6.56
2023-11-23T00:10:14.662Z,6.60
2023-11-23T00:11:14.638Z,6.52
2023-11-23T00:12:14.705Z,6.36
2023-11-23T00:13:14.613Z,6.38
2023-11-23T00:14:14.596Z,6.45
2023-11-23T00:15:14.657Z,6.41
2023-11-23T00:16:14.641Z,6.41
2023-11-23T00:17:14.588Z,6.14
2023-11-23T00:18:14.614Z,6.26
2023-11-23T00:19:14.552Z,6.38
2023-11-23T00:20:14.522Z,6.41
2023-11-23T00:21:14.570Z,6.28
2023-11-23T00:22:14.502Z,6.09
2023-11-23T00:23:14.487Z,6.11
2023-11-23T00:24:14.543Z,6.27
2023-11-23T00:25:14.486Z,6.33
2023-11-23T00:26:14.464Z,6.27
2023-11-23T00:27:14.522Z,6.39
2023-11-23T00:28:14.461Z,6.33
2023-11-23T00:29:22.039Z,6.62
2023-11-23T00:30:14.551Z,6.59
2023-11-23T00:31:14.412Z,6.59
2023-11-23T00:32:14.414Z,6.66
2023-11-23T00:33:14.461Z,6.64
2023-11-23T00:34:14.408Z,6.69
2023-11-23T00:35:14.353Z,6.59
2023-11-23T00:36:14.397Z,6.64
2023-11-23T00:37:14.334Z,6.66
2023-11-23T00:38:14.345Z,6.57
2023-11-23T00:39:14.353Z,6.45
2023-11-23T00:40:14.318Z,6.52
2023-11-23T00:41:14.340Z,6.64
2023-11-23T00:42:14.343Z,6.57
2023-11-23T00:43:14.319Z,6.62
2023-11-23T00:44:14.274Z,6.63
2023-11-23T00:45:14.302Z,6.64
2023-11-23T00:46:14.231Z,6.64
2023-11-23T00:47:14.310Z,6.42
2023-11-23T00:48:14.306Z,6.51
2023-11-23T00:49:14.213Z,6.70
2023-11-23T00:50:14.188Z,6.64
2023-11-23T00:51:14.264Z,6.75
2023-11-23T00:52:14.172Z,6.57
2023-11-23T00:53:14.195Z,6.60
2023-11-23T00:54:14.196Z,6.72
2023-11-23T00:55:14.131Z,6.72
2023-11-23T00:56:14.135Z,6.63
2023-11-23T00:57:14.303Z,6.49
2023-11-23T00:58:14.167Z,6.63
2023-11-23T00:59:14.096Z,6.75
2023-11-23T01:00:14.141Z,6.77
2023-11-23T01:01:14.195Z,6.70
2023-11-23T01:02:14.208Z,6.67
2023-11-23T01:03:14.195Z,6.78
2023-11-23T01:04:14.112Z,6.82
2023-11-23T01:05:14.026Z,6.88
2023-11-23T01:06:14.047Z,6.79
2023-11-23T01:07:14.033Z,6.79
2023-11-23T01:08:14.012Z,6.78
2023-11-23T01:09:14.057Z,6.84
2023-11-23T01:10:13.968Z,6.85
2023-11-23T01:11:13.958Z,6.85
2023-11-23T01:12:13.990Z,6.81
2023-11-23T01:13:13.992Z,6.82
2023-11-23T01:14:14.008Z,6.78
2023-11-23T01:15:13.942Z,6.72
2023-11-23T01:16:13.900Z,6.77
2023-11-23T01:17:13.927Z,6.81
2023-11-23T01:18:13.917Z,6.82
2023-11-23T01:19:13.909Z,6.93
2023-11-23T01:20:13.861Z,7.00
2023-11-23T01:21:13.880Z,7.03
2023-11-23T01:22:13.859Z,6.96
2023-11-23T01:23:13.832Z,6.99
2023-11-23T01:24:13.856Z,7.03
2023-11-23T01:25:13.821Z,7.06
2023-11-23T01:26:13.824Z,6.97
2023-11-23T01:27:13.929Z,6.82
2023-11-23T01:28:13.785Z,7.03
2023-11-23T01:29:13.888Z,6.96
2023-11-23T01:30:13.824Z,6.89
2023-11-23T01:31:13.739Z,6.93
2023-11-23T01:32:13.778Z,7.05
2023-11-23T01:33:13.862Z,6.99
2023-11-23T01:34:13.831Z,6.99
2023-11-23T01:35:13.715Z,7.02
2023-11-23T01:36:13.721Z,7.06
2023-11-23T01:37:13.698Z,7.14
2023-11-23T01:38:13.672Z,7.24
2023-11-23T01:39:13.718Z,7.02
2023-11-23T01:40:13.660Z,7.14
2023-11-23T01:41:13.638Z,7.06
2023-11-23T01:42:13.756Z,7.02
2023-11-23T01:43:13.613Z,7.05
2023-11-23T01:44:13.646Z,6.99
2023-11-23T01:45:13.644Z,7.02
2023-11-23T01:46:13.610Z,7.02
2023-11-23T01:47:13.601Z,7.00
2023-11-23T01:48:13.688Z,7.05
2023-11-23T01:49:13.564Z,7.03
2023-11-23T01:50:14.784Z,7.10
2023-11-23T01:51:13.650Z,7.21
2023-11-23T01:52:13.527Z,7.32
2023-11-23T01:53:13.568Z,7.45
2023-11-23T01:54:13.530Z,7.32
2023-11-23T01:55:13.488Z,7.35
2023-11-23T01:56:13.483Z,7.39
2023-11-23T01:57:13.532Z,7.21
2023-11-23T01:58:13.496Z,7.07
2023-11-23T01:59:13.440Z,7.15
2023-11-23T02:00:13.469Z,7.28
2023-11-23T02:01:13.437Z,7.24
2023-11-23T02:02:13.470Z,7.28
2023-11-23T02:03:13.443Z,7.21
2023-11-23T02:04:13.443Z,7.32
2023-11-23T02:05:13.381Z,7.25
2023-11-23T02:06:13.569Z,7.29
2023-11-23T02:07:13.362Z,7.36
2023-11-23T02:08:13.343Z,7.35
2023-11-23T02:09:13.356Z,7.42
2023-11-23T02:10:13.379Z,7.36
2023-11-23T02:11:13.334Z,7.21
2023-11-23T02:12:13.298Z,7.23
2023-11-23T02:13:13.319Z,7.21
2023-11-23T02:14:13.269Z,7.31
2023-11-23T02:15:13.326Z,7.24
2023-11-23T02:16:13.289Z,7.23
2023-11-23T02:17:13.280Z,7.29
2023-11-23T02:18:13.303Z,7.43
2023-11-23T02:20:22.491Z,7.23
2023-11-23T02:21:22.528Z,7.42
2023-11-23T02:22:22.486Z,7.48
2023-11-23T02:23:22.471Z,7.33
2023-11-23T02:24:22.482Z,7.31
2023-11-23T02:25:22.434Z,7.23
2023-11-23T02:26:22.416Z,7.40
2023-11-23T02:27:22.448Z,7.25
2023-11-23T02:28:22.422Z,7.43
2023-11-23T02:29:22.400Z,7.48
2023-11-23T02:30:22.436Z,7.47
2023-11-23T02:31:22.401Z,7.51
2023-11-23T02:32:22.397Z,7.36
2023-11-23T02:33:22.428Z,7.43
2023-11-23T02:34:22.379Z,7.36
2023-11-23T02:35:22.491Z,7.45
2023-11-23T02:36:22.361Z,7.40
2023-11-23T02:37:22.306Z,7.45
2023-11-23T02:38:22.329Z,7.61
2023-11-23T02:39:22.285Z,7.43
2023-11-23T02:40:22.303Z,7.57
2023-11-23T02:41:22.281Z,7.43
2023-11-23T02:42:22.288Z,7.43
2023-11-23T02:43:22.247Z,7.24
2023-11-23T02:44:22.262Z,7.40
2023-11-23T02:45:22.388Z,7.40
2023-11-23T02:46:22.258Z,7.38
2023-11-23T02:47:22.197Z,7.32
2023-11-23T02:48:22.316Z,7.15
2023-11-23T02:49:22.176Z,7.33
2023-11-23T02:50:22.184Z,7.32
2023-11-23T02:51:22.217Z,7.14
2023-11-23T02:52:22.174Z,7.18
2023-11-23T02:53:22.144Z,7.25
2023-11-23T02:54:22.134Z,7.38
2023-11-23T02:55:22.105Z,7.54
2023-11-23T02:56:22.113Z,7.33
2023-11-23T02:57:22.107Z,7.48
2023-11-23T02:58:22.096Z,7.50
2023-11-23T02:59:22.091Z,7.54
2023-11-23T03:00:22.145Z,7.54
2023-11-23T03:01:22.078Z,7.48
2023-11-23T03:02:22.150Z,7.48
2023-11-23T03:03:22.082Z,7.53
2023-11-23T03:04:22.110Z,7.58
2023-11-23T03:05:22.045Z,7.42
2023-11-23T03:06:22.056Z,7.51
2023-11-23T03:07:21.972Z,7.53
2023-11-23T03:08:21.959Z,7.66
2023-11-23T03:09:22.110Z,7.63
2023-11-23T03:10:21.956Z,7.72
2023-11-23T03:11:21.959Z,7.54
2023-11-23T03:12:21.996Z,7.39
2023-11-23T03:13:21.927Z,7.56
2023-11-23T03:14:21.925Z,7.66
2023-11-23T03:15:22.014Z,7.61
2023-11-23T03:16:21.884Z,7.51
2023-11-23T03:17:21.936Z,7.50
2023-11-23T03:18:22.055Z,7.47
2023-11-23T03:19:21.912Z,7.48
2023-11-23T03:20:21.854Z,7.48
2023-11-23T03:21:21.883Z,7.40
2023-11-23T03:22:21.834Z,7.50
2023-11-23T03:23:21.813Z,7.50
2023-11-23T03:24:21.815Z,7.29
2023-11-23T03:25:21.798Z,7.36
2023-11-23T03:26:21.813Z,7.45
2023-11-23T03:27:21.829Z,7.43
2023-11-23T03:28:21.741Z,7.40
2023-11-23T03:29:21.766Z,7.54
2023-11-23T03:30:21.734Z,7.48
2023-11-23T03:31:21.746Z,7.58
2023-11-23T03:32:21.726Z,7.56
2023-11-23T03:33:21.793Z,7.45
2023-11-23T03:34:21.931Z,7.39
2023-11-23T03:35:21.697Z,7.39
2023-11-23T03:36:21.790Z,7.35
2023-11-23T03:37:21.641Z,7.36
2023-11-23T03:38:21.659Z,7.48
2023-11-23T03:39:21.860Z,7.47
2023-11-23T03:40:21.616Z,7.58
2023-11-23T03:41:21.670Z,7.66
2023-11-23T03:42:21.688Z,7.48
2023-11-23T03:43:21.630Z,7.63
2023-11-23T03:44:21.610Z,7.75
2023-11-23T03:45:21.596Z,7.80
2023-11-23T03:46:21.648Z,7.76
2023-11-23T03:47:21.576Z,7.79
2023-11-23T03:48:21.640Z,7.73
2023-11-23T03:49:21.522Z,7.77
2023-11-23T03:50:21.537Z,7.85
2023-11-23T03:51:21.570Z,7.94
2023-11-23T03:52:21.549Z,7.85
2023-11-23T03:53:21.493Z,8.00
2023-11-23T03:54:21.501Z,8.06
2023-11-23T03:55:21.459Z,8.03
2023-11-23T03:56:21.504Z,8.03
2023-11-23T03:57:21.462Z,7.88
2023-11-23T03:58:21.418Z,7.83
2023-11-23T03:59:21.445Z,7.70
2023-11-23T04:00:21.432Z,7.72
2023-11-23T04:01:21.406Z,7.85
2023-11-23T04:02:21.494Z,7.82
2023-11-23T04:03:21.392Z,7.95
2023-11-23T04:04:21.576Z,8.00
2023-11-23T04:05:21.353Z,8.01
2023-11-23T04:06:21.443Z,8.03
2023-11-23T04:07:21.346Z,8.05
2023-11-23T04:08:21.328Z,8.10
2023-11-23T04:09:21.401Z,7.94
2023-11-23T04:10:21.323Z,7.73
2023-11-23T04:11:21.274Z,7.72
2023-11-23T04:12:21.358Z,7.82
2023-11-23T04:13:21.310Z,7.90
2023-11-23T04:14:21.255Z,7.90
2023-11-23T04:15:21.376Z,7.87
2023-11-23T04:16:21.243Z,8.00
2023-11-23T04:17:21.279Z,8.03
2023-11-23T04:18:21.248Z,7.94
2023-11-23T04:19:21.215Z,7.79
2023-11-23T04:20:21.209Z,7.90
2023-11-23T04:21:21.193Z,7.83
2023-11-23T04:22:21.214Z,7.93
2023-11-23T04:23:21.145Z,7.97
2023-11-23T04:24:21.200Z,8.05
2023-11-23T04:25:21.142Z,7.83
2023-11-23T04:26:21.141Z,7.82
2023-11-23T04:27:21.160Z,8.01
2023-11-23T04:28:21.115Z,8.06
2023-11-23T04:29:21.098Z,7.97
2023-11-23T04:30:21.089Z,8.00
2023-11-23T04:31:21.075Z,8.08
2023-11-23T04:32:21.096Z,8.01
2023-11-23T04:33:21.228Z,7.93
2023-11-23T04:34:21.107Z,8.05
2023-11-23T04:35:21.042Z,8.05
2023-11-23T04:36:21.035Z,7.98
2023-11-23T04:37:21.026Z,8.12
2023-11-23T04:38:21.003Z,8.06
2023-11-23T04:39:21.013Z,8.08
2023-11-23T04:40:21.005Z,8.09
2023-11-23T04:41:20.968Z,8.15
2023-11-23T04:42:21.048Z,8.01
2023-11-23T04:43:20.983Z,8.05
2023-11-23T04:44:20.938Z,8.00
2023-11-23T04:45:20.941Z,8.12
2023-11-23T04:46:20.970Z,8.16
2023-11-23T04:47:20.940Z,8.12
2023-11-23T04:48:20.985Z,8.09
2023-11-23T04:49:20.883Z,8.15
2023-11-23T04:50:22.590Z,8.10
2023-11-23T04:51:20.873Z,8.08
2023-11-23T04:52:20.841Z,8.13
2023-11-23T04:53:20.828Z,7.95
2023-11-23T04:54:20.937Z,8.08
2023-11-23T04:55:20.831Z,8.08
2023-11-23T04:56:20.820Z,8.10
2023-11-23T04:57:20.851Z,8.08
2023-11-23T04:58:23.278Z,8.05
2023-11-23T04:59:20.758Z,8.05
2023-11-23T05:00:20.832Z,8.10
2023-11-23T05:01:20.785Z,8.10
2023-11-23T05:02:20.726Z,8.09
2023-11-23T05:03:20.754Z,8.12
2023-11-23T05:04:20.767Z,8.15
2023-11-23T05:05:20.724Z,8.27
2023-11-23T05:06:20.737Z,8.27
2023-11-23T05:07:20.695Z,8.15
2023-11-23T05:08:20.671Z,8.16
2023-11-23T05:09:20.681Z,8.16
2023-11-23T05:10:20.661Z,8.13
2023-11-23T05:11:20.664Z,8.16
2023-11-23T05:12:20.671Z,8.18
2023-11-23T05:13:20.634Z,8.19
2023-11-23T05:14:20.608Z,8.10
2023-11-23T05:15:20.690Z,8.13
2023-11-23T05:16:20.628Z,8.13
2023-11-23T05:17:20.577Z,8.15
2023-11-23T05:18:20.632Z,8.18
2023-11-23T05:19:31.688Z,8.08
2023-11-23T05:20:21.557Z,8.13
2023-11-23T05:21:20.543Z,8.15
2023-11-23T05:22:20.546Z,8.27
2023-11-23T05:23:20.527Z,8.30
2023-11-23T05:24:20.523Z,8.24
2023-11-23T05:25:20.505Z,8.31
2023-11-23T05:26:20.533Z,8.26
2023-11-23T05:27:20.496Z,8.16
2023-11-23T05:28:20.467Z,8.23
2023-11-23T05:29:20.457Z,8.24
2023-11-23T05:30:20.499Z,8.28
2023-11-23T05:31:20.455Z,8.19
2023-11-23T05:32:20.414Z,8.28
2023-11-23T05:33:22.384Z,8.19
2023-11-23T05:34:20.418Z,8.16
2023-11-23T05:35:20.400Z,8.08
2023-11-23T05:36:20.415Z,8.19
2023-11-23T05:37:20.367Z,8.15
2023-11-23T05:38:20.354Z,8.36
2023-11-23T05:39:20.383Z,8.44
2023-11-23T05:40:20.327Z,8.33
2023-11-23T05:41:20.325Z,8.31
2023-11-23T05:42:20.356Z,8.41
2023-11-23T05:43:20.362Z,8.34
2023-11-23T05:44:20.324Z,8.41
2023-11-23T05:45:20.322Z,8.42
2023-11-23T05:46:20.329Z,8.38
2023-11-23T05:47:20.266Z,8.46
2023-11-23T05:48:20.354Z,8.45
2023-11-23T05:49:20.224Z,8.37
2023-11-23T05:50:20.267Z,8.26
2023-11-23T05:51:21.692Z,8.44
2023-11-23T05:52:20.198Z,8.53
2023-11-23T05:53:20.209Z,8.38
2023-11-23T05:54:20.207Z,8.63
2023-11-23T05:55:20.158Z,8.52
2023-11-23T05:56:20.169Z,8.51
2023-11-23T05:57:20.192Z,8.58
2023-11-23T05:58:20.136Z,8.70
2023-11-23T05:59:20.166Z,8.73
2023-11-23T06:00:20.189Z,8.71
2023-11-23T06:01:20.096Z,8.67
2023-11-23T06:02:20.208Z,8.66
2023-11-23T06:03:22.801Z,8.74
2023-11-23T06:04:20.300Z,8.69
2023-11-23T06:05:20.159Z,8.78
2023-11-23T06:06:20.328Z,8.84
2023-11-23T06:07:20.037Z,8.67
2023-11-23T06:08:20.026Z,8.60
2023-11-23T06:09:20.041Z,8.61
2023-11-23T06:10:20.022Z,8.55
2023-11-23T06:11:20.129Z,8.55
2023-11-23T06:12:20.052Z,8.58
2023-11-23T06:13:19.983Z,8.44
2023-11-23T06:14:20.063Z,8.60
2023-11-23T06:15:19.966Z,8.49
2023-11-23T06:16:20.082Z,8.49
2023-11-23T06:17:19.935Z,8.53
2023-11-23T06:18:20.025Z,8.60
2023-11-23T06:19:19.937Z,8.64
2023-11-23T06:20:19.903Z,8.55
2023-11-23T06:21:19.961Z,8.41
2023-11-23T06:22:19.872Z,8.51
2023-11-23T06:23:19.874Z,8.60
2023-11-23T06:24:19.899Z,8.44
2023-11-23T06:25:19.841Z,8.56
2023-11-23T06:26:19.838Z,8.52
2023-11-23T06:27:19.846Z,8.52
2023-11-23T06:28:19.805Z,8.56
2023-11-23T06:29:19.794Z,8.53
2023-11-23T06:30:19.902Z,8.55
2023-11-23T06:31:19.878Z,8.67
2023-11-23T06:32:19.843Z,8.64
2023-11-23T06:33:19.877Z,8.52
2023-11-23T06:34:19.799Z,8.53
2023-11-23T06:35:19.809Z,8.66
2023-11-23T06:36:19.804Z,8.70
2023-11-23T06:37:19.731Z,8.73
2023-11-23T06:38:19.721Z,8.84
2023-11-23T06:39:19.705Z,8.97
2023-11-23T06:40:19.734Z,9.08
2023-11-23T06:41:19.723Z,8.92
2023-11-23T06:42:19.699Z,8.97
2023-11-23T06:43:19.754Z,8.78
2023-11-23T06:44:19.670Z,8.97
2023-11-23T06:45:19.630Z,8.92
2023-11-23T06:46:19.686Z,8.97
2023-11-23T06:47:19.676Z,9.04
2023-11-23T06:48:19.711Z,8.94
2023-11-23T06:49:19.712Z,9.11
2023-11-23T06:50:19.604Z,8.92
2023-11-23T06:51:19.586Z,8.92
2023-11-23T06:52:19.560Z,8.97
2023-11-23T06:53:19.538Z,8.99
2023-11-23T06:54:19.590Z,8.89
2023-11-23T06:55:19.527Z,8.94
2023-11-23T06:56:19.544Z,9.02
2023-11-23T06:57:19.550Z,8.99
2023-11-23T06:58:19.517Z,9.11
2023-11-23T06:59:19.505Z,9.10
2023-11-23T07:00:19.463Z,8.92
2023-11-23T07:01:19.477Z,8.94
2023-11-23T07:02:19.530Z,9.11
2023-11-23T07:03:19.455Z,9.22
2023-11-23T07:04:19.477Z,9.23
2023-11-23T07:05:19.429Z,9.32
2023-11-23T07:06:19.471Z,9.50
2023-11-23T07:07:19.386Z,9.36
2023-11-23T07:08:19.413Z,9.43
2023-11-23T07:09:19.407Z,9.43
2023-11-23T07:10:20.715Z,9.44
2023-11-23T07:11:19.481Z,9.54
2023-11-23T07:12:19.370Z,9.56
2023-11-23T07:13:19.436Z,9.46
2023-11-23T07:14:19.359Z,9.25
2023-11-23T07:15:19.932Z,9.37
2023-11-23T07:16:19.514Z,9.29
2023-11-23T07:17:19.288Z,9.41
2023-11-23T07:18:19.724Z,9.50
2023-11-23T07:19:19.280Z,9.58
2023-11-23T07:20:19.255Z,9.47
2023-11-23T07:21:19.324Z,9.44
2023-11-23T07:22:19.240Z,9.51
2023-11-23T07:23:19.225Z,9.59
2023-11-23T07:24:19.309Z,9.43
2023-11-23T07:25:19.212Z,9.40
2023-11-23T07:26:19.189Z,9.32
2023-11-23T07:27:19.194Z,9.47
2023-11-23T07:28:19.173Z,9.41
2023-11-23T07:29:19.153Z,9.44
2023-11-23T07:30:19.190Z,9.48
2023-11-23T07:31:19.178Z,9.56
2023-11-23T07:32:19.109Z,9.58
2023-11-23T07:33:19.290Z,9.62
2023-11-23T07:34:19.121Z,9.40
2023-11-23T07:35:19.087Z,9.55
2023-11-23T07:36:19.113Z,9.47
2023-11-23T07:37:19.085Z,9.59
2023-11-23T07:38:19.879Z,9.47
2023-11-23T07:39:19.072Z,9.55
2023-11-23T07:40:19.023Z,9.43
2023-11-23T07:41:19.021Z,9.59
2023-11-23T07:42:20.564Z,9.64
2023-11-23T07:43:19.012Z,9.79
2023-11-23T07:44:18.980Z,9.79
2023-11-23T07:45:19.063Z,9.72
2023-11-23T07:46:18.968Z,9.84
2023-11-23T07:47:18.974Z,9.77
2023-11-23T07:48:19.041Z,9.86
2023-11-23T07:49:18.925Z,9.77
2023-11-23T07:50:18.942Z,9.68
2023-11-23T07:51:18.956Z,9.83
2023-11-23T07:52:18.911Z,9.89
2023-11-23T07:53:21.685Z,10.02
2023-11-23T07:54:18.971Z,10.01
2023-11-23T07:55:18.905Z,10.01
2023-11-23T07:56:18.849Z,10.01
2023-11-23T07:57:18.864Z,9.89
2023-11-23T07:58:18.901Z,9.92
2023-11-23T07:59:18.825Z,9.80
2023-11-23T08:00:18.885Z,9.94
2023-11-23T08:01:18.807Z,9.98
2023-11-23T08:02:18.783Z,9.95
2023-11-23T08:03:18.920Z,10.01
2023-11-23T08:04:18.817Z,9.89
2023-11-23T08:05:18.756Z,10.05
2023-11-23T08:06:20.615Z,9.92
2023-11-23T08:07:18.746Z,9.97
2023-11-23T08:08:18.740Z,9.89
2023-11-23T08:09:18.711Z,9.83
2023-11-23T08:10:18.709Z,9.77
2023-11-23T08:11:18.721Z,9.82
2023-11-23T08:12:18.707Z,9.91
2023-11-23T08:13:18.689Z,9.98
2023-11-23T08:14:18.644Z,9.92
2023-11-23T08:15:18.684Z,9.95
2023-11-23T08:16:18.667Z,9.84
2023-11-23T08:17:18.647Z,9.83
2023-11-23T08:18:18.712Z,9.89
2023-11-23T08:19:18.682Z,10.01
2023-11-23T08:20:18.600Z,9.95
2023-11-23T08:21:18.700Z,9.89
2023-11-23T08:22:18.573Z,9.92
2023-11-23T08:23:18.541Z,9.97
2023-11-23T08:24:18.806Z,9.86
2023-11-23T08:25:18.528Z,9.99
2023-11-23T08:26:18.557Z,9.86
2023-11-23T08:27:18.539Z,9.89
2023-11-23T08:28:18.509Z,10.01
2023-11-23T08:29:18.501Z,9.97
2023-11-23T08:30:18.545Z,10.05
2023-11-23T08:31:18.509Z,9.99
2023-11-23T08:32:18.444Z,10.01
2023-11-23T08:33:18.497Z,9.98
2023-11-23T08:34:18.426Z,9.69
2023-11-23T08:35:18.419Z,9.80
2023-11-23T08:36:18.540Z,9.87
2023-11-23T08:37:18.392Z,9.82
2023-11-23T08:38:18.418Z,9.89
2023-11-23T08:39:18.426Z,9.99
2023-11-23T08:40:18.385Z,10.04
2023-11-23T08:41:18.391Z,9.98
2023-11-23T08:42:18.356Z,9.94
2023-11-23T08:43:18.322Z,10.07
2023-11-23T08:44:18.323Z,10.05
2023-11-23T08:45:18.417Z,10.01
2023-11-23T08:46:18.352Z,10.01
2023-11-23T08:47:18.318Z,10.12
2023-11-23T08:48:18.343Z,10.05
2023-11-23T08:49:18.264Z,10.09
2023-11-23T08:50:18.246Z,10.10
2023-11-23T08:51:18.253Z,9.99
2023-11-23T08:52:18.221Z,10.09
2023-11-23T08:53:18.242Z,10.15
2023-11-23T08:54:18.233Z,10.28
2023-11-23T08:55:18.204Z,10.16
2023-11-23T08:56:18.202Z,10.05
2023-11-23T08:57:18.237Z,10.04
2023-11-23T08:58:18.160Z,10.02
2023-11-23T08:59:18.159Z,10.09
2023-11-23T09:00:18.139Z,9.95
2023-11-23T09:01:18.260Z,10.17
2023-11-23T09:02:20.853Z,10.20
2023-11-23T09:03:18.183Z,10.12
2023-11-23T09:04:18.270Z,10.20
2023-11-23T09:05:18.202Z,10.30
2023-11-23T09:06:18.180Z,10.26
2023-11-23T09:07:18.118Z,10.23
2023-11-23T09:08:18.052Z,10.34
2023-11-23T09:09:19.750Z,10.22
2023-11-23T09:10:18.053Z,10.23
2023-11-23T09:11:18.027Z,10.37
2023-11-23T09:12:18.053Z,10.33
2023-11-23T09:13:17.993Z,10.33
2023-11-23T09:14:17.988Z,10.23
2023-11-23T09:15:17.985Z,10.35
2023-11-23T09:16:18.032Z,10.38
2023-11-23T09:17:18.545Z,10.48
2023-11-23T09:18:18.064Z,10.51
2023-11-23T09:19:17.983Z,10.57
2023-11-23T09:20:17.934Z,10.33
2023-11-23T09:21:17.952Z,10.25
2023-11-23T09:22:17.903Z,10.20
2023-11-23T09:23:17.879Z,10.25
2023-11-23T09:24:17.872Z,10.28
2023-11-23T09:25:17.859Z,10.38
2023-11-23T09:26:17.849Z,10.49
2023-11-23T09:27:17.885Z,10.59
2023-11-23T09:28:17.853Z,10.38
2023-11-23T09:29:17.856Z,10.60
2023-11-23T09:30:17.839Z,10.71
2023-11-23T09:31:17.824Z,10.67
2023-11-23T09:32:17.783Z,10.71
2023-11-23T09:33:20.303Z,10.79
2023-11-23T09:34:17.757Z,10.69
2023-11-23T09:35:17.746Z,10.75
2023-11-23T09:36:17.766Z,10.72
2023-11-23T09:37:17.743Z,10.76
2023-11-23T09:38:17.712Z,10.71
2023-11-23T09:39:17.772Z,10.78
2023-11-23T09:40:17.713Z,10.69
2023-11-23T09:41:17.692Z,10.71
2023-11-23T09:42:17.716Z,10.72
2023-11-23T09:43:17.667Z,10.72
2023-11-23T09:44:17.669Z,10.69
2023-11-23T09:45:17.656Z,10.84
2023-11-23T09:46:17.671Z,10.90
2023-11-23T09:47:17.652Z,10.79
2023-11-23T09:48:17.674Z,10.71
2023-11-23T09:49:17.587Z,10.71
2023-11-23T09:50:17.586Z,10.84
2023-11-23T09:51:17.614Z,10.92
2023-11-23T09:52:17.579Z,10.89
2023-11-23T09:53:17.568Z,10.97
2023-11-23T09:54:17.596Z,10.84
2023-11-23T09:55:17.545Z,10.89
2023-11-23T09:56:17.528Z,11.04
2023-11-23T09:57:17.581Z,10.90
2023-11-23T09:58:17.499Z,10.93
2023-11-23T09:59:17.525Z,10.89
2023-11-23T10:00:17.534Z,10.97
2023-11-23T10:01:17.476Z,10.97
2023-11-23T10:02:17.463Z,10.90
2023-11-23T10:03:17.505Z,10.78
2023-11-23T10:04:17.701Z,10.87
2023-11-23T10:05:17.466Z,10.90
2023-11-23T10:06:17.465Z,10.90
2023-11-23T10:07:17.393Z,10.97
2023-11-23T10:08:17.398Z,11.08
2023-11-23T10:09:17.456Z,10.96
2023-11-23T10:10:17.390Z,10.89
2023-11-23T10:11:17.356Z,11.07
2023-11-23T10:12:17.397Z,11.22
2023-11-23T10:13:17.325Z,11.18
2023-11-23T10:14:17.503Z,11.11
2023-11-23T10:15:17.468Z,11.22
2023-11-23T10:16:17.388Z,11.36
2023-11-23T10:17:17.290Z,11.23
2023-11-23T10:18:17.346Z,11.23
2023-11-23T10:19:25.224Z,11.36
2023-11-23T10:20:17.276Z,11.37
2023-11-23T10:21:17.285Z,11.30
2023-11-23T10:22:17.281Z,11.32
2023-11-23T10:23:17.217Z,11.22
2023-11-23T10:24:17.250Z,11.18
2023-11-23T10:25:17.211Z,11.25
2023-11-23T10:26:17.189Z,11.33
2023-11-23T10:27:17.253Z,11.27
2023-11-23T10:28:17.173Z,11.43
2023-11-23T10:29:17.150Z,11.47
2023-11-23T10:30:17.254Z,11.41
2023-11-23T10:31:17.146Z,11.32
2023-11-23T10:32:17.135Z,11.51
2023-11-23T10:33:17.181Z,11.54
2023-11-23T10:34:17.119Z,11.47
2023-11-23T10:35:17.101Z,11.55
2023-11-23T10:36:17.113Z,11.44
2023-11-23T10:37:17.076Z,11.51
2023-11-23T10:38:17.062Z,11.57
2023-11-23T10:39:17.076Z,11.44
2023-11-23T10:40:17.043Z,11.48
2023-11-23T10:41:17.022Z,11.52
2023-11-23T10:42:17.048Z,11.26
2023-11-23T10:43:17.086Z,11.40
2023-11-23T10:44:17.024Z,11.43
2023-11-23T10:45:17.181Z,11.32
2023-11-23T10:46:17.097Z,11.41
2023-11-23T10:47:17.023Z,11.30
2023-11-23T10:48:17.100Z,11.33
2023-11-23T10:49:17.023Z,11.43
2023-11-23T10:50:17.008Z,11.63
2023-11-23T10:51:17.043Z,11.50
2023-11-23T10:52:16.949Z,11.60
2023-11-23T10:53:16.989Z,11.45
2023-11-23T10:54:16.909Z,11.35
2023-11-23T10:55:16.895Z,11.43
2023-11-23T10:56:16.866Z,11.32
2023-11-23T10:57:16.900Z,11.48
2023-11-23T10:58:16.836Z,11.50
2023-11-23T10:59:16.823Z,11.52
2023-11-23T11:00:24.019Z,11.63
2023-11-23T11:01:16.815Z,11.41
2023-11-23T11:02:16.818Z,11.51
2023-11-23T11:03:16.840Z,11.51
2023-11-23T11:04:16.826Z,11.59
2023-11-23T11:05:16.770Z,11.55
2023-11-23T11:06:16.794Z,11.50
2023-11-23T11:07:16.741Z,11.68
2023-11-23T11:08:16.730Z,11.50
2023-11-23T11:09:16.808Z,11.66
2023-11-23T11:10:16.710Z,11.75
2023-11-23T11:11:16.725Z,11.66
2023-11-23T11:12:16.876Z,11.78
2023-11-23T11:13:16.758Z,11.68
2023-11-23T11:14:16.659Z,11.72
2023-11-23T11:15:16.677Z,11.75
2023-11-23T11:16:16.659Z,11.84
2023-11-23T11:17:16.631Z,11.81
2023-11-23T11:18:16.697Z,11.62
2023-11-23T11:19:16.654Z,11.54
2023-11-23T11:20:16.639Z,11.78
2023-11-23T11:21:16.687Z,11.86
2023-11-23T11:22:16.576Z,11.78
2023-11-23T11:23:16.566Z,11.78
2023-11-23T11:24:16.593Z,11.83
2023-11-23T11:25:16.549Z,11.78
2023-11-23T11:26:16.533Z,11.83
2023-11-23T11:27:16.588Z,11.97
2023-11-23T11:28:16.514Z,12.07
2023-11-23T11:29:16.581Z,12.00
2023-11-23T11:30:16.513Z,11.87
2023-11-23T11:31:16.591Z,11.84
2023-11-23T11:32:16.498Z,11.95
2023-11-23T11:33:16.547Z,11.90
2023-11-23T11:34:16.483Z,11.86
2023-11-23T11:35:16.431Z,11.95
2023-11-23T11:36:16.477Z,12.12
2023-11-23T11:37:16.409Z,12.20
2023-11-23T11:38:16.432Z,12.25
2023-11-23T11:39:16.439Z,12.15
2023-11-23T11:40:16.410Z,12.25
2023-11-23T11:41:16.371Z,12.18
2023-11-23T11:42:16.399Z,11.99
2023-11-23T11:43:16.418Z,12.02
2023-11-23T11:44:16.339Z,11.86
2023-11-23T11:45:16.397Z,12.04
2023-11-23T11:46:16.387Z,12.09
2023-11-23T11:47:16.307Z,12.13
2023-11-23T11:48:16.363Z,11.94
2023-11-23T11:49:16.293Z,12.13
2023-11-23T11:50:16.290Z,12.12
2023-11-23T11:51:16.321Z,12.29
2023-11-23T11:52:16.291Z,12.06
2023-11-23T11:53:16.241Z,12.22
2023-11-23T11:54:16.279Z,12.13
2023-11-23T11:55:16.233Z,12.18
2023-11-23T11:56:16.209Z,12.18
2023-11-23T11:57:16.248Z,12.17
2023-11-23T11:58:16.192Z,12.25
2023-11-23T11:59:16.176Z,12.17
2023-11-23T12:00:16.200Z,12.18
2023-11-23T12:01:16.151Z,12.32
2023-11-23T12:02:16.254Z,12.20
2023-11-23T12:03:16.226Z,12.12
2023-11-23T12:04:16.169Z,12.21
2023-11-23T12:05:16.128Z,12.02
2023-11-23T12:06:16.152Z,12.02
2023-11-23T12:07:16.137Z,12.20
2023-11-23T12:08:16.094Z,12.32
2023-11-23T12:09:16.164Z,12.31
2023-11-23T12:10:16.067Z,12.20
2023-11-23T12:11:16.049Z,12.24
2023-11-23T12:12:16.098Z,12.29
2023-11-23T12:13:16.074Z,12.21
2023-11-23T12:14:16.014Z,12.20
2023-11-23T12:15:16.034Z,12.20
2023-11-23T12:16:16.045Z,12.03
2023-11-23T12:17:16.053Z,11.97
2023-11-23T12:18:16.125Z,12.13
2023-11-23T12:19:15.959Z,12.06
2023-11-23T12:20:15.971Z,12.17
2023-11-23T12:21:15.981Z,12.21
2023-11-23T12:22:15.926Z,12.28
2023-11-23T12:23:15.911Z,12.36
2023-11-23T12:24:16.004Z,12.28
2023-11-23T12:25:15.914Z,12.29
2023-11-23T12:26:15.903Z,12.27
2023-11-23T12:27:15.943Z,12.24
2023-11-23T12:28:15.868Z,12.37
2023-11-23T12:29:15.867Z,12.50
2023-11-23T12:30:15.932Z,12.55
2023-11-23T12:31:15.830Z,12.36
2023-11-23T12:32:15.821Z,12.35
2023-11-23T12:33:15.890Z,12.37
2023-11-23T12:34:15.799Z,12.28
2023-11-23T12:35:15.803Z,12.13
2023-11-23T12:36:15.789Z,12.28
2023-11-23T12:37:15.906Z,12.36
2023-11-23T12:38:15.760Z,12.40
2023-11-23T12:39:15.788Z,12.36
2023-11-23T12:40:15.758Z,12.35
2023-11-23T12:41:15.737Z,12.25
2023-11-23T12:42:15.763Z,12.29
2023-11-23T12:43:15.738Z,12.12
2023-11-23T12:44:15.686Z,12.03
2023-11-23T12:45:15.704Z,11.95
2023-11-23T12:46:15.713Z,12.20
2023-11-23T12:47:15.834Z,12.13
2023-11-23T12:48:15.727Z,12.07
2023-11-23T12:49:15.643Z,12.10
2023-11-23T12:50:15.647Z,12.18
2023-11-23T12:51:15.643Z,12.17
2023-11-23T12:52:15.619Z,12.15
2023-11-23T12:53:15.707Z,12.18
2023-11-23T12:54:15.639Z,12.28
2023-11-23T12:55:15.593Z,12.43
2023-11-23T12:56:15.586Z,12.37
2023-11-23T12:57:15.570Z,12.37
2023-11-23T12:58:15.535Z,12.18
2023-11-23T12:59:15.522Z,12.10
2023-11-23T13:00:15.657Z,12.32
2023-11-23T13:01:15.533Z,12.20
2023-11-23T13:02:15.617Z,12.22
2023-11-23T13:03:15.715Z,12.39
2023-11-23T13:04:15.607Z,12.37
2023-11-23T13:05:15.474Z,12.37
2023-11-23T13:06:15.534Z,12.32
2023-11-23T13:07:15.627Z,12.29
2023-11-23T13:08:15.440Z,12.24
2023-11-23T13:09:15.476Z,12.29
2023-11-23T13:10:15.436Z,12.27